Time;durP1;ratioP1;P1;durP2;ratioP2;P2;SDS_P1;SDS_P2;PMS_P1;PMS_P2;Temp;Humidity;BMP_temperature;BMP_pressure;BME280_temperature;BME280_humidity;BME280_pressure;Samples;Min_cycle;Max_cycle;Signal;HPM_P1;HPM_P2
2021/10/29 00:00:56;;;;;;;38.20;19.55;;;;;;;7.68;89.46;99028.47;5119358;28;20047;-95
2021/10/29 00:03:22;;;;;;;35.28;19.65;;;;;;;7.69;89.93;99032.88;5118624;28;20101;-96
2021/10/29 00:05:48;;;;;;;42.53;21.05;;;;;;;7.56;90.98;99018.03;5118931;28;20059;-93
2021/10/29 00:08:14;;;;;;;34.95;20.17;;;;;;;7.65;91.39;99038.22;5118382;28;20040;-95
2021/10/29 00:10:41;;;;;;;36.45;20.83;;;;;;;7.53;91.54;99023.34;5119137;28;20104;-96
2021/10/29 00:13:08;;;;;;;40.97;21.08;;;;;;;7.69;91.06;99053.16;5119079;28;20076;-96
2021/10/29 00:15:35;;;;;;;40.58;21.40;;;;;;;7.68;91.78;99044.38;5116429;28;20069;-95
2021/10/29 00:18:01;;;;;;;43.58;20.98;;;;;;;7.63;92.40;99026.75;5115299;28;20047;-94
2021/10/29 00:20:28;;;;;;;37.60;20.27;;;;;;;7.58;92.34;99016.22;5115245;28;20058;-94
2021/10/29 00:22:54;;;;;;;38.33;20.55;;;;;;;7.70;91.99;99039.03;5117343;28;20048;-95
2021/10/29 00:25:20;;;;;;;38.10;21.25;;;;;;;7.74;91.98;99041.66;5118856;28;20330;-94
2021/10/29 00:27:47;;;;;;;37.10;21.27;;;;;;;7.50;91.89;99016.31;5118702;28;20040;-94
2021/10/29 00:30:14;;;;;;;39.03;20.70;;;;;;;7.58;92.84;99032.13;5118498;28;20047;-95
2021/10/29 00:32:40;;;;;;;36.05;19.67;;;;;;;7.52;92.50;99013.66;5107420;28;20079;-95
2021/10/29 00:35:08;;;;;;;32.65;18.25;;;;;;;7.52;91.95;99017.16;5104710;28;20048;-96
2021/10/29 00:40:39;;;;;;;32.92;17.45;;;;;;;7.61;91.52;99034.72;5100578;27;20393;-95
2021/10/29 00:43:06;;;;;;;28.53;17.10;;;;;;;7.55;91.80;99034.81;5100041;28;20063;-95
2021/10/29 00:45:33;;;;;;;33.58;18.10;;;;;;;7.48;91.87;99028.72;5099007;28;20040;-94
2021/10/29 00:47:59;;;;;;;32.38;17.17;;;;;;;7.44;91.83;99019.03;5099430;28;20062;-96
2021/10/29 00:50:25;;;;;;;37.25;20.20;;;;;;;7.46;93.05;99026.94;5099903;28;20040;-94
2021/10/29 00:52:51;;;;;;;40.63;21.33;;;;;;;7.66;93.01;99035.56;5098939;28;20131;-96
2021/10/29 00:55:17;;;;;;;40.35;22.40;;;;;;;7.61;92.36;99022.38;5098411;28;20040;-94
2021/10/29 00:57:45;;;;;;;44.22;22.13;;;;;;;7.66;91.96;99016.16;5098410;28;20394;-94
2021/10/29 01:00:12;;;;;;;45.28;22.63;;;;;;;7.76;92.09;99031.94;5098680;28;20041;-94
2021/10/29 01:02:38;;;;;;;46.75;23.33;;;;;;;7.64;91.88;99002.06;5098345;28;20041;-95
2021/10/29 01:05:05;;;;;;;45.92;22.00;;;;;;;7.93;91.67;99044.06;5098309;28;20124;-95
2021/10/29 01:07:31;;;;;;;45.58;21.75;;;;;;;7.75;91.92;99008.09;5098382;28;20051;-95
2021/10/29 01:09:57;;;;;;;41.47;21.58;;;;;;;7.70;91.49;99004.63;5099274;28;20041;-95
2021/10/29 01:12:23;;;;;;;41.78;22.73;;;;;;;7.73;91.86;99010.75;5098855;28;20093;-94
2021/10/29 01:14:54;;;;;;;45.78;22.83;;;;;;;7.73;92.07;99009.91;5098104;28;20138;-95
2021/10/29 01:17:21;;;;;;;43.53;22.02;;;;;;;7.87;91.59;99010.63;5098409;28;20074;-95
2021/10/29 01:19:50;;;;;;;42.15;22.08;;;;;;;7.86;91.24;99019.44;5098333;28;20044;-94
2021/10/29 01:22:19;;;;;;;43.35;22.27;;;;;;;7.76;90.96;99016.03;5098737;28;20044;-95
2021/10/29 01:24:45;;;;;;;38.50;21.50;;;;;;;7.70;91.17;99012.56;5098220;28;20052;-94
2021/10/29 01:27:12;;;;;;;44.55;21.08;;;;;;;7.64;91.40;99000.28;5098446;28;20086;-95
2021/10/29 01:29:39;;;;;;;41.03;20.75;;;;;;;7.71;91.10;99012.56;5098295;28;20037;-95
2021/10/29 01:32:06;;;;;;;40.20;21.00;;;;;;;7.76;91.44;99028.38;5098070;28;20043;-94
2021/10/29 01:34:33;;;;;;;40.58;21.15;;;;;;;7.54;91.15;98998.63;5097774;28;20048;-94
2021/10/29 01:36:59;;;;;;;43.03;22.50;;;;;;;7.50;91.56;99004.84;5097908;28;20051;-94
2021/10/29 01:39:26;;;;;;;42.70;21.88;;;;;;;7.56;91.28;99004.78;5097248;28;20044;-94
2021/10/29 01:41:52;;;;;;;43.05;23.33;;;;;;;7.43;92.15;98990.81;5095663;28;20044;-95
2021/10/29 01:44:19;;;;;;;44.25;22.50;;;;;;;7.56;92.36;99003.00;5096359;28;20103;-94
2021/10/29 01:46:44;;;;;;;43.45;22.13;;;;;;;7.49;91.88;98982.81;5096978;28;20048;-94
2021/10/29 01:49:10;;;;;;;41.60;22.27;;;;;;;7.58;92.76;99008.28;5095742;28;20045;-94
2021/10/29 01:51:36;;;;;;;37.65;21.23;;;;;;;7.50;92.38;98989.84;5086446;28;20040;-94
2021/10/29 01:54:02;;;;;;;41.33;21.95;;;;;;;7.57;92.22;98991.56;5085462;28;20024;-94
2021/10/29 01:56:30;;;;;;;40.35;21.90;;;;;;;7.58;92.36;98997.72;5084646;28;20053;-96
2021/10/29 01:58:56;;;;;;;42.92;21.50;;;;;;;7.61;92.24;99002.97;5083331;28;20040;-95
2021/10/29 02:01:22;;;;;;;41.63;21.80;;;;;;;7.54;91.75;98999.50;5084028;28;20051;-94
2021/10/29 02:03:48;;;;;;;43.05;23.98;;;;;;;7.40;91.77;98989.09;5084671;28;20052;-94
2021/10/29 02:06:14;;;;;;;47.13;22.13;;;;;;;7.33;91.80;98979.47;5083606;28;20048;-95
2021/10/29 02:08:40;;;;;;;40.63;22.90;;;;;;;7.48;92.74;99006.63;5083776;28;20555;-94
2021/10/29 02:11:06;;;;;;;42.47;22.40;;;;;;;7.29;93.15;98975.09;5083660;28;20097;-95
2021/10/29 02:13:34;;;;;;;40.90;21.55;;;;;;;7.41;92.98;98966.13;5083538;28;20068;-95
2021/10/29 02:16:00;;;;;;;40.33;21.23;;;;;;;7.51;92.36;98980.16;5084085;28;20090;-95
2021/10/29 02:18:25;;;;;;;36.63;19.95;;;;;;;7.69;92.28;98993.16;5083236;28;20040;-95
2021/10/29 02:20:52;;;;;;;40.85;21.23;;;;;;;7.66;92.14;99001.16;5082783;28;20497;-95
2021/10/29 02:23:18;;;;;;;37.67;20.08;;;;;;;7.44;91.68;98984.66;5084217;28;20123;-95
2021/10/29 02:25:45;;;;;;;40.03;21.50;;;;;;;7.33;91.95;98974.19;5084098;28;20052;-95
2021/10/29 02:28:12;;;;;;;38.55;20.98;;;;;;;7.43;91.76;99009.34;5084904;28;20047;-96
2021/10/29 02:30:40;;;;;;;36.05;20.00;;;;;;;7.22;91.59;98988.38;5084907;28;20090;-95
2021/10/29 02:33:06;;;;;;;45.13;22.30;;;;;;;7.11;91.87;98994.69;5084022;28;20044;-94
2021/10/29 02:35:32;;;;;;;41.72;21.95;;;;;;;7.02;92.88;98970.09;5083466;28;20634;-96
2021/10/29 02:37:58;;;;;;;44.25;21.85;;;;;;;6.98;93.46;98970.13;5082768;28;20044;-96
2021/10/29 02:40:24;;;;;;;42.13;21.98;;;;;;;7.16;93.97;98969.06;5083194;28;20070;-95
2021/10/29 02:42:51;;;;;;;42.70;22.25;;;;;;;7.19;93.76;98962.84;5083171;28;20051;-95
2021/10/29 02:45:17;;;;;;;41.88;22.73;;;;;;;7.17;93.39;98969.94;5082480;28;20063;-94
2021/10/29 02:47:47;;;;;;;48.30;23.15;;;;;;;7.17;93.38;98968.16;5083215;28;20041;-95
2021/10/29 02:50:13;;;;;;;47.72;23.17;;;;;;;7.29;93.60;98987.47;5083945;28;20041;-95
2021/10/29 02:52:39;;;;;;;44.83;22.40;;;;;;;7.05;93.33;98972.69;5082529;28;20097;-96
2021/10/29 02:55:06;;;;;;;39.90;21.48;;;;;;;6.96;92.91;98968.34;5084051;28;20044;-95
2021/10/29 02:57:32;;;;;;;41.65;21.73;;;;;;;6.90;92.54;98973.72;5082779;28;20139;-95
2021/10/29 02:59:58;;;;;;;34.80;19.52;;;;;;;6.77;91.99;98963.25;5084086;28;20041;-95
2021/10/29 03:02:24;;;;;;;37.30;21.08;;;;;;;6.75;92.06;98967.69;5083076;28;20047;-96
2021/10/29 03:04:51;;;;;;;39.50;20.70;;;;;;;6.82;91.63;99004.63;5083424;28;20124;-95
2021/10/29 03:07:17;;;;;;;39.42;21.40;;;;;;;6.55;92.19;98969.63;5083368;28;20563;-94
2021/10/29 03:09:43;;;;;;;40.30;20.65;;;;;;;6.47;93.59;98967.03;5083157;28;20041;-94
2021/10/29 03:12:09;;;;;;;42.10;23.15;;;;;;;6.61;94.94;98982.75;5081961;28;20050;-95
2021/10/29 03:14:35;;;;;;;47.58;25.55;;;;;;;6.61;95.97;98979.25;5080577;28;20398;-95
2021/10/29 03:17:01;;;;;;;46.75;22.95;;;;;;;6.56;95.73;98963.44;5081254;28;20044;-95
2021/10/29 03:19:27;;;;;;;44.15;24.40;;;;;;;6.69;95.18;98980.94;5082045;28;20566;-94
2021/10/29 03:21:55;;;;;;;48.75;24.65;;;;;;;6.53;95.82;98959.06;5082962;28;20098;-95
2021/10/29 03:24:21;;;;;;;43.67;23.85;;;;;;;6.60;95.94;98975.72;5082923;28;20135;-94
2021/10/29 03:26:47;;;;;;;47.88;24.52;;;;;;;6.45;96.43;98952.94;5082306;28;20056;-95
2021/10/29 03:29:13;;;;;;;47.78;25.05;;;;;;;6.46;96.24;98954.72;5082641;28;20112;-95
2021/10/29 03:31:38;;;;;;;47.13;23.63;;;;;;;6.57;96.30;98967.81;5082829;28;20098;-94
2021/10/29 03:34:04;;;;;;;45.88;23.60;;;;;;;6.48;95.91;98947.63;5082400;28;20052;-95
2021/10/29 03:36:30;;;;;;;44.67;23.73;;;;;;;6.48;95.81;98949.41;5083197;28;20173;-94
2021/10/29 03:48:01;;;;;;;44.08;23.20;;;;;;;6.28;94.39;98984.75;5119653;27;20388;-94
2021/10/29 03:50:30;;;;;;;43.33;22.10;;;;;;;6.24;94.26;98990.94;5120614;28;20058;-95
2021/10/29 03:55:58;;;;;;;39.83;20.38;;;;;;;6.22;94.77;99002.41;5119830;27;20396;-95
2021/10/29 03:58:24;;;;;;;40.63;21.02;;;;;;;6.13;95.03;98984.84;5119021;28;20052;-95
2021/10/29 04:00:50;;;;;;;39.95;21.73;;;;;;;5.99;94.84;98965.59;5119425;28;20056;-94
2021/10/29 04:03:17;;;;;;;41.88;21.30;;;;;;;5.91;95.66;98970.84;5119371;28;20055;-94
2021/10/29 04:05:43;;;;;;;38.83;20.48;;;;;;;5.90;96.23;98985.81;5119709;28;20113;-94
2021/10/29 04:08:10;;;;;;;38.63;20.67;;;;;;;5.98;95.40;98996.34;5120232;28;20123;-94
2021/10/29 04:13:43;;;;;;;41.65;21.17;;;;;;;5.76;95.01;98975.31;5139917;27;20376;-95
2021/10/29 04:16:11;;;;;;;43.88;21.17;;;;;;;5.83;96.21;98977.94;5140073;28;20059;-94
2021/10/29 04:18:38;;;;;;;40.17;20.38;;;;;;;5.73;96.77;98964.78;5139841;28;20040;-96
2021/10/29 04:21:05;;;;;;;41.30;22.45;;;;;;;5.75;96.64;98962.16;5140485;28;20047;-95
2021/10/29 04:23:31;;;;;;;38.45;21.20;;;;;;;5.70;96.66;98967.44;5140330;28;20562;-94
2021/10/29 04:25:58;;;;;;;41.85;21.33;;;;;;;5.71;96.30;98973.59;5140330;28;20050;-95
2021/10/29 04:28:25;;;;;;;39.38;20.75;;;;;;;5.66;96.44;98963.06;5140371;28;20054;-95
2021/10/29 04:30:52;;;;;;;37.72;19.77;;;;;;;5.66;96.25;98962.16;5140392;28;20040;-95
2021/10/29 04:33:19;;;;;;;38.22;20.27;;;;;;;5.65;96.67;98957.78;5141981;27;20047;-94
2021/10/29 04:35:50;;;;;;;46.58;21.42;;;;;;;5.85;96.98;98992.88;5143363;28;20043;-94
2021/10/29 04:38:16;;;;;;;37.15;19.88;;;;;;;5.64;96.44;98961.28;5142371;27;20040;-95
2021/10/29 04:40:43;;;;;;;39.50;19.25;;;;;;;5.63;96.25;98968.34;5140813;28;20051;-95
2021/10/29 04:43:10;;;;;;;53.90;24.85;;;;;;;5.79;99.78;98963.88;5137609;28;20115;-93
2021/10/29 04:45:37;;;;;;;49.53;25.08;;;;;;;5.90;99.63;98961.19;5139150;28;20039;-95
2021/10/29 04:48:05;;;;;;;51.70;25.45;;;;;;;5.99;98.91;98957.66;5140537;28;20397;-95
2021/10/29 04:50:32;;;;;;;47.28;24.92;;;;;;;6.07;98.29;98958.47;5140799;28;20044;-94
2021/10/29 04:53:01;;;;;;;46.72;24.35;;;;;;;6.09;97.95;98968.13;5142459;28;20388;-94
2021/10/29 04:55:28;;;;;;;46.95;22.88;;;;;;;5.96;97.31;98964.72;5142533;28;20039;-96
2021/10/29 04:57:55;;;;;;;41.97;21.75;;;;;;;5.91;96.83;98960.28;5142308;28;20054;-94
2021/10/29 05:00:23;;;;;;;41.72;23.20;;;;;;;5.85;96.83;98960.31;5143614;28;20531;-95
2021/10/29 05:02:50;;;;;;;42.47;21.75;;;;;;;5.76;97.22;98975.31;5144840;28;20061;-94
2021/10/29 05:05:18;;;;;;;45.15;22.33;;;;;;;5.83;96.76;98988.47;5144816;28;20468;-94
2021/10/29 05:07:44;;;;;;;43.60;21.55;;;;;;;5.78;96.87;98990.28;5143816;28;20107;-94
2021/10/29 05:10:10;;;;;;;40.58;21.55;;;;;;;5.72;96.26;98975.34;5143409;28;20043;-94
2021/10/29 05:12:36;;;;;;;40.28;21.77;;;;;;;5.63;96.54;98988.56;5141703;28;20051;-93
2021/10/29 05:15:03;;;;;;;45.10;22.40;;;;;;;5.52;96.83;98978.06;5142173;28;20047;-95
2021/10/29 05:17:29;;;;;;;46.33;22.67;;;;;;;5.56;97.65;98971.88;5141632;28;20181;-96
2021/10/29 05:19:55;;;;;;;51.53;24.48;;;;;;;5.76;98.12;99003.47;5142045;28;20051;-93
2021/10/29 05:22:22;;;;;;;52.03;25.80;;;;;;;5.66;98.02;98978.00;5141767;28;20069;-94
2021/10/29 05:24:48;;;;;;;53.40;26.77;;;;;;;5.52;98.05;98968.38;5128144;28;20497;-94
2021/10/29 05:27:18;;;;;;;47.30;24.75;;;;;;;5.46;98.57;98968.38;5127597;28;20035;-93
2021/10/29 05:29:43;;;;;;;;;;;;;;;5.62;98.64;99000.03;5128459;28;20042;-95
2021/10/29 05:32:09;;;;;;;50.17;24.92;;;;;;;5.35;98.74;98965.78;5128148;28;19920;-94
2021/10/29 05:34:36;;;;;;;52.92;26.25;;;;;;;5.43;98.91;98978.09;5128285;28;20048;-92
2021/10/29 05:37:03;;;;;;;53.40;24.80;;;;;;;5.39;99.00;98985.13;5128549;28;20535;-93
2021/10/29 05:39:31;;;;;;;51.90;25.30;;;;;;;5.31;99.10;98974.63;5129718;28;20071;-93
2021/10/29 05:41:58;;;;;;;48.70;23.63;;;;;;;5.29;99.35;98963.19;5130073;28;20082;-94
2021/10/29 05:44:25;;;;;;;47.00;22.92;;;;;;;5.34;99.31;98973.72;5130218;28;20284;-96
2021/10/29 05:46:51;;;;;;;43.70;22.80;;;;;;;5.35;99.66;98967.56;5130852;28;20040;-93
2021/10/29 05:49:18;;;;;;;52.20;24.58;;;;;;;5.44;99.08;98961.38;5130404;28;20036;-93
2021/10/29 05:51:47;;;;;;;41.50;23.35;;;;;;;5.47;97.54;98951.69;5130447;28;20044;-94
2021/10/29 05:58:08;;;;;;;41.47;21.13;;;;;;;5.56;97.30;98979.81;5124722;27;20870;-94
2021/10/29 06:00:34;;;;;;;41.67;21.10;;;;;;;5.63;97.10;98983.28;5125548;28;20079;-94
2021/10/29 06:03:03;;;;;;;42.35;20.77;;;;;;;5.57;96.52;98963.06;5126096;28;20044;-95
2021/10/29 06:05:29;;;;;;;40.78;20.95;;;;;;;5.60;96.06;98965.72;5125698;28;20071;-93
2021/10/29 06:07:56;;;;;;;42.17;21.20;;;;;;;5.63;96.28;98975.38;5125720;28;20063;-94
2021/10/29 06:10:22;;;;;;;39.47;21.23;;;;;;;5.65;95.49;98970.97;5124500;28;20040;-95
2021/10/29 06:12:48;;;;;;;40.78;20.77;;;;;;;5.74;95.79;98978.84;5125461;28;20081;-95
2021/10/29 06:15:17;;;;;;;41.90;22.40;;;;;;;5.76;95.91;98979.72;5125912;28;20054;-94
2021/10/29 06:17:44;;;;;;;42.13;21.42;;;;;;;5.79;95.88;98971.81;5125138;28;20043;-94
2021/10/29 06:20:12;;;;;;;47.13;22.77;;;;;;;6.11;96.47;98997.19;5125340;28;20067;-95
2021/10/29 06:22:41;;;;;;;42.33;22.45;;;;;;;6.20;96.56;98981.28;5121994;28;20374;-93
2021/10/29 06:25:12;;;;;;;41.85;22.02;;;;;;;6.37;96.41;98997.88;5122331;28;20040;-95
2021/10/29 06:30:24;;;;;;;53.63;25.15;;;;;;;6.53;93.57;99021.59;5115377;27;20376;-95
2021/10/29 06:32:50;;;;;;;46.95;23.55;;;;;;;6.31;94.14;99005.88;5083612;28;20049;-93
2021/10/29 06:35:16;;;;;;;48.53;25.10;;;;;;;6.47;94.24;99025.13;5083329;28;20080;-94
2021/10/29 06:37:42;;;;;;;45.92;23.83;;;;;;;6.36;93.73;98993.50;5083177;28;20100;-94
2021/10/29 06:40:12;;;;;;;46.25;23.77;;;;;;;6.47;93.22;99000.50;5078524;28;20083;-94
2021/10/29 06:42:39;;;;;;;47.08;24.15;;;;;;;6.46;92.28;98989.06;5082983;28;20075;-95
2021/10/29 07:41:54;;;;;;;37.22;20.10;;;;;;;8.89;83.47;99012.72;5106619;27;20387;-95
2021/10/29 07:44:26;;;;;;;43.05;21.98;;;;;;;8.89;83.25;99020.69;5075066;28;20056;-94
2021/10/29 07:46:53;;;;;;;39.47;21.13;;;;;;;9.10;82.79;99040.66;5072754;28;20059;-95
2021/10/29 07:49:26;;;;;;;39.20;22.02;;;;;;;8.98;81.93;99011.69;5080792;28;20056;-95
2021/10/29 07:51:52;;;;;;;39.95;21.25;;;;;;;9.08;82.41;99010.63;5080518;28;20048;-95
2021/10/29 07:54:18;;;;;;;38.00;23.15;;;;;;;9.11;80.80;99002.63;5077716;28;20044;-95
2021/10/29 07:56:45;;;;;;;40.33;22.90;;;;;;;8.92;82.00;98999.41;5082109;28;20056;-94
2021/10/29 07:59:14;;;;;;;38.03;22.00;;;;;;;9.17;81.82;99014.88;5080600;28;20044;-96
2021/10/29 08:01:40;;;;;;;41.63;23.00;;;;;;;9.07;81.11;98990.31;5085708;28;20045;-96
2021/10/29 08:04:07;;;;;;;38.95;23.08;;;;;;;9.14;81.58;99001.69;5082422;28;20063;-95
2021/10/29 08:06:33;;;;;;;41.00;22.65;;;;;;;9.41;82.22;99002.94;5077928;28;20048;-94
2021/10/29 08:09:01;;;;;;;41.05;21.40;;;;;;;9.27;82.64;98987.28;5079033;28;20045;-95
2021/10/29 08:11:27;;;;;;;37.85;20.75;;;;;;;9.63;80.87;98996.34;5078755;28;20045;-94
2021/10/29 08:13:54;;;;;;;37.38;20.08;;;;;;;9.51;81.07;98985.94;5077420;28;20513;-96
2021/10/29 08:16:23;;;;;;;36.60;20.77;;;;;;;9.46;81.93;98985.19;5078980;28;20045;-96
2021/10/29 08:18:49;;;;;;;;;;;;;;;9.90;81.95;99011.75;5075908;28;20107;-96
2021/10/29 08:21:16;;;;;;;38.58;20.75;;;;;;;10.21;79.62;99001.34;5076927;28;19991;-96
2021/10/29 08:23:42;;;;;;;36.42;21.65;;;;;;;10.28;78.61;98979.06;5077403;28;20044;-94
2021/10/29 08:26:11;;;;;;;37.15;21.38;;;;;;;10.50;77.30;98978.59;5077207;28;20052;-96
2021/10/29 08:28:37;;;;;;;41.63;21.58;;;;;;;10.52;76.52;98974.09;5065708;28;20055;-96
2021/10/29 08:31:03;;;;;;;33.00;19.17;;;;;;;10.85;75.59;98999.88;5056542;28;20176;-94
2021/10/29 08:33:30;;;;;;;36.90;20.27;;;;;;;10.88;76.03;98977.66;5057557;28;20160;-96
2021/10/29 08:35:56;;;;;;;38.17;21.17;;;;;;;11.02;75.52;98995.94;5060487;28;20064;-96
2021/10/29 08:38:24;;;;;;;37.22;20.15;;;;;;;11.13;74.54;99003.66;5058134;28;20395;-96
2021/10/29 08:40:50;;;;;;;34.42;19.75;;;;;;;10.86;74.55;98972.41;5059158;28;20076;-96
2021/10/29 08:43:17;;;;;;;34.22;19.42;;;;;;;10.96;75.37;98990.78;5059881;28;20377;-95
2021/10/29 08:45:43;;;;;;;33.97;18.60;;;;;;;11.06;75.03;98990.50;5058734;28;20052;-96
2021/10/29 08:48:11;;;;;;;31.77;17.65;;;;;;;11.31;74.44;98998.72;5057730;28;20041;-95
2021/10/29 08:50:38;;;;;;;32.58;17.23;;;;;;;11.33;73.56;98974.72;5059469;28;20044;-95
2021/10/29 08:53:05;;;;;;;30.85;18.75;;;;;;;11.38;73.40;98969.25;5046251;28;20101;-95
2021/10/29 08:55:34;;;;;;;30.98;17.27;;;;;;;11.53;73.12;98974.16;5047529;28;20077;-95
2021/10/29 08:58:03;;;;;;;32.55;18.08;;;;;;;11.78;72.43;98977.03;5045672;28;20403;-96
2021/10/29 09:00:33;;;;;;;30.67;17.00;;;;;;;11.86;71.93;98969.69;5052481;28;20041;-94
2021/10/29 09:33:44;;;;;;;41.05;22.85;;;;;;;12.52;69.83;98973.03;5138337;27;20393;-95
2021/10/29 09:36:24;;;;;;;34.45;20.33;;;;;;;12.62;68.65;98988.75;5115481;28;20132;-94
2021/10/29 09:38:54;;;;;;;36.17;19.73;;;;;;;12.66;68.73;98977.06;5115721;28;20521;-96
2021/10/29 09:41:22;;;;;;;38.00;20.42;;;;;;;12.73;68.79;98971.50;5117091;28;20044;-96
2021/10/29 09:43:58;;;;;;;33.33;19.15;;;;;;;12.71;68.51;98969.81;5115912;28;20044;-94
2021/10/29 09:46:39;;;;;;;37.72;20.33;;;;;;;12.99;67.34;98984.88;5115283;28;20047;-95
2021/10/29 09:49:18;;;;;;;36.15;20.40;;;;;;;13.00;67.55;98965.28;5116926;28;20070;-95
2021/10/29 09:51:55;;;;;;;36.80;20.05;;;;;;;13.13;67.31;98966.59;5114861;28;20059;-95
2021/10/29 09:54:33;;;;;;;40.28;19.35;;;;;;;13.27;66.68;98975.03;5115314;28;20040;-95
2021/10/29 09:57:00;;;;;;;36.15;19.70;;;;;;;13.15;67.31;98970.97;5116448;28;20043;-96
2021/10/29 09:59:26;;;;;;;35.75;19.83;;;;;;;13.05;67.31;98957.97;5115984;28;20036;-96
2021/10/29 10:01:53;;;;;;;35.00;19.80;;;;;;;12.86;67.92;98968.41;5114016;28;20032;-95
2021/10/29 10:04:21;;;;;;;34.10;19.35;;;;;;;12.91;68.44;98972.66;5113522;28;20072;-95
2021/10/29 10:06:47;;;;;;;36.90;19.65;;;;;;;12.86;68.13;98963.94;5116113;28;20047;-95
2021/10/29 10:09:17;;;;;;;36.92;20.42;;;;;;;12.87;68.16;98957.69;5114006;28;20089;-94
2021/10/29 10:11:45;;;;;;;35.33;20.38;;;;;;;12.78;68.40;98944.66;5113054;28;20071;-95
2021/10/29 10:14:13;;;;;;;33.47;19.42;;;;;;;12.72;68.87;98961.72;5113019;28;20460;-95
2021/10/29 10:16:42;;;;;;;36.58;19.85;;;;;;;12.74;69.37;98948.34;5112557;28;20044;-94
2021/10/29 10:19:09;;;;;;;32.53;18.13;;;;;;;12.71;69.97;98935.97;5113019;28;20131;-94
2021/10/29 10:21:40;;;;;;;33.40;19.38;;;;;;;12.94;68.90;98934.31;5113149;28;20032;-95
2021/10/29 10:30:37;;;;;;;30.33;16.42;;;;;;;13.39;67.69;98919.47;5095796;27;20389;-95
2021/10/29 10:48:49;;;;;;;36.58;19.00;;;;;;;13.81;65.89;98916.97;5073645;27;20384;-92
2021/10/29 11:11:14;;;;;;;33.38;17.75;;;;;;;13.88;65.79;98875.75;5190986;27;20377;-94
2021/10/29 11:13:54;;;;;;;30.50;17.40;;;;;;;13.75;66.03;98848.59;5158166;27;20054;-94
2021/10/29 11:16:25;;;;;;;;;;;;;;;13.99;66.04;98880.66;5157992;27;20047;-95
2021/10/29 11:18:53;;;;;;;27.65;16.27;;;;;;;13.95;66.27;98860.31;5156235;27;19923;-93
2021/10/29 11:21:25;;;;;;;32.75;18.10;;;;;;;14.03;65.86;98868.94;5152715;27;20071;-95
2021/10/29 11:23:56;;;;;;;36.35;20.35;;;;;;;13.98;65.73;98869.06;5151471;27;20524;-94
2021/10/29 11:26:28;;;;;;;33.22;18.70;;;;;;;14.01;66.11;98868.13;5140902;27;20065;-94
2021/10/29 11:28:55;;;;;;;33.75;19.02;;;;;;;13.93;65.11;98841.66;5137760;27;20039;-94
2021/10/29 11:31:25;;;;;;;37.30;19.58;;;;;;;13.98;65.33;98817.41;5136668;27;20050;-94
2021/10/29 11:33:53;;;;;;;37.67;19.90;;;;;;;14.35;65.19;98848.88;5141253;27;20131;-93
2021/10/29 11:36:20;;;;;;;38.67;18.77;;;;;;;14.47;64.63;98839.50;5133739;27;20104;-95
2021/10/29 11:38:48;;;;;;;40.95;20.20;;;;;;;14.60;63.83;98831.00;5152917;27;20050;-94
2021/10/29 11:41:16;;;;;;;38.35;18.02;;;;;;;14.71;62.94;98836.75;5154241;27;20043;-95
2021/10/29 11:43:44;;;;;;;35.97;18.40;;;;;;;14.78;62.75;98832.84;5153757;27;20043;-95
2021/10/29 11:46:13;;;;;;;32.40;17.98;;;;;;;14.78;62.58;98825.69;5154622;27;20098;-95
2021/10/29 11:48:45;;;;;;;29.00;17.17;;;;;;;14.81;61.82;98813.97;5153972;27;20043;-93
2021/10/29 11:51:13;;;;;;;32.25;18.27;;;;;;;14.77;61.76;98804.38;5154104;27;20043;-95
2021/10/29 11:53:46;;;;;;;26.48;15.80;;;;;;;14.86;62.64;98816.47;5153523;27;20043;-94
2021/10/29 12:08:21;;;;;;;28.33;15.43;;;;;;;14.43;64.51;98802.22;5097262;27;20378;-94
2021/10/29 12:10:50;;;;;;;28.48;14.63;;;;;;;14.37;64.51;98798.00;5099030;28;20056;-95
2021/10/29 12:13:16;;;;;;;29.42;16.95;;;;;;;14.53;65.11;98830.31;5099279;28;20502;-95
2021/10/29 12:15:42;;;;;;;34.22;17.45;;;;;;;14.42;65.46;98808.50;5100056;28;20509;-96
2021/10/29 12:18:10;;;;;;;37.75;18.73;;;;;;;14.33;65.80;98785.69;5098265;28;20040;-96
2021/10/29 12:20:40;;;;;;;33.90;17.45;;;;;;;14.36;64.56;98791.78;5097233;28;20125;-95
2021/10/29 12:23:13;;;;;;;33.40;17.55;;;;;;;14.33;66.35;98797.28;5099497;28;20044;-95
2021/10/29 12:28:43;;;;;;;31.90;18.08;;;;;;;14.26;66.41;98779.72;5115487;27;20408;-95
2021/10/29 12:34:17;;;;;;;34.60;19.63;;;;;;;14.32;65.16;98776.78;5101969;27;20384;-95
2021/10/29 13:07:23;;;;;;;24.48;13.23;;;;;;;16.36;57.65;98747.72;5098779;27;20385;-94
2021/10/29 13:09:49;;;;;;;28.55;15.68;;;;;;;16.44;57.99;98739.28;5099720;28;20098;-95
2021/10/29 13:12:23;;;;;;;27.50;14.57;;;;;;;16.52;57.52;98738.88;5099045;28;20436;-94
2021/10/29 13:17:57;;;;;;;28.90;16.55;;;;;;;16.68;57.87;98750.56;5149576;27;1527792;-95
2021/10/29 14:43:40;;;;;;;16.92;10.35;;;;;;;16.26;55.97;98705.34;5109052;27;20374;-92
2021/10/29 15:01:27;;;;;;;18.13;9.98;;;;;;;15.70;58.61;98723.28;5105297;27;20376;-94
2021/10/29 15:31:08;;;;;;;18.00;10.52;;;;;;;14.24;68.11;98748.63;5136206;27;20122;-95
2021/10/29 15:45:42;;;;;;;19.10;12.50;;;;;;;14.38;63.63;98725.69;5072807;27;20376;-94
2021/10/29 15:51:07;;;;;;;19.27;10.98;;;;;;;14.44;62.99;98729.91;5134784;27;20376;-94
2021/10/29 15:53:33;;;;;;;17.23;10.63;;;;;;;14.51;63.08;98750.13;5134485;27;20065;-95
2021/10/29 15:56:08;;;;;;;18.17;10.77;;;;;;;14.27;63.53;98727.09;5134433;28;20043;-94
2021/10/29 15:58:41;;;;;;;17.38;11.00;;;;;;;14.13;64.06;98725.88;5134471;28;20047;-94
2021/10/29 16:18:49;;;;;;;24.92;12.70;;;;;;;13.79;64.67;98738.91;5113393;27;20377;-94
2021/10/29 16:21:15;;;;;;;19.55;13.07;;;;;;;13.83;64.94;98753.88;5113373;28;20180;-94
2021/10/29 16:23:40;;;;;;;23.40;13.07;;;;;;;13.61;65.05;98722.69;5113413;28;20040;-95
2021/10/29 16:26:13;;;;;;;22.75;13.60;;;;;;;13.61;65.52;98741.38;5113207;28;20039;-94
2021/10/29 16:28:41;;;;;;;28.13;12.93;;;;;;;13.51;65.67;98730.19;5113624;28;20050;-94
2021/10/29 16:31:10;;;;;;;20.17;12.73;;;;;;;13.52;66.01;98752.44;5113888;28;20505;-94
2021/10/29 16:33:36;;;;;;;23.92;13.63;;;;;;;13.51;65.68;98748.91;5113531;28;20044;-94
2021/10/29 16:36:04;;;;;;;27.65;13.02;;;;;;;13.42;66.03;98751.91;5113536;28;20097;-94
2021/10/29 16:38:32;;;;;;;24.35;12.18;;;;;;;13.38;66.28;98755.66;5113285;28;20048;-93
2021/10/29 16:40:58;;;;;;;23.52;12.85;;;;;;;13.43;66.37;98771.50;5113417;28;20040;-94
2021/10/29 16:43:25;;;;;;;22.58;12.75;;;;;;;13.33;66.67;98763.81;5113314;28;20040;-95
2021/10/29 16:45:52;;;;;;;25.10;13.60;;;;;;;13.38;67.01;98784.16;5113614;28;20059;-96
2021/10/29 16:48:24;;;;;;;35.08;14.98;;;;;;;13.30;66.99;98773.78;5102455;28;20032;-94
2021/10/29 16:50:52;;;;;;;24.55;12.93;;;;;;;13.20;66.83;98759.84;5112814;28;20036;-95
2021/10/29 16:53:19;;;;;;;21.65;12.68;;;;;;;13.15;66.93;98762.69;5112813;28;20043;-93
2021/10/29 16:55:46;;;;;;;23.15;13.27;;;;;;;13.37;67.00;98790.44;5112326;28;20046;-95
2021/10/29 16:58:12;;;;;;;18.50;12.85;;;;;;;13.28;66.67;98756.91;5112030;28;20440;-95
2021/10/29 17:00:40;;;;;;;23.40;13.18;;;;;;;13.25;66.55;98752.56;5111831;28;20044;-96
2021/10/29 17:03:05;;;;;;;23.23;13.48;;;;;;;13.29;66.46;98769.34;5112504;28;20439;-94
2021/10/29 17:05:32;;;;;;;24.67;13.32;;;;;;;13.32;66.49;98782.59;5114031;28;20077;-93
2021/10/29 17:07:57;;;;;;;22.15;12.90;;;;;;;13.35;66.58;98791.34;5112243;28;20528;-93
2021/10/29 17:10:25;;;;;;;24.13;13.45;;;;;;;13.24;66.92;98788.19;5112525;28;20044;-93
2021/10/29 17:12:52;;;;;;;23.70;13.60;;;;;;;13.18;67.07;98780.41;5112495;28;20054;-95
2021/10/29 17:15:19;;;;;;;22.48;13.10;;;;;;;13.17;67.37;98786.69;5112590;28;20047;-93
2021/10/29 17:17:46;;;;;;;27.00;14.90;;;;;;;13.16;67.79;98787.59;5110843;28;20039;-94
2021/10/29 17:20:18;;;;;;;27.15;14.90;;;;;;;13.06;68.03;98773.72;5113434;28;20047;-95
2021/10/29 17:22:44;;;;;;;26.92;14.45;;;;;;;13.22;67.94;98808.72;5111888;28;20050;-92
2021/10/29 17:25:13;;;;;;;24.23;14.27;;;;;;;13.21;68.37;98819.50;5111422;28;20127;-95
2021/10/29 17:27:41;;;;;;;24.90;15.17;;;;;;;13.13;68.54;98798.41;5111354;28;20568;-95